Time;durP1;ratioP1;P1;durP2;ratioP2;P2;SDS_P1;SDS_P2;PMS_P1;PMS_P2;Temp;Humidity;BMP_temperature;BMP_pressure;BME280_temperature;BME280_humidity;BME280_pressure;Samples;Min_cycle;Max_cycle;Signal;HPM_P1;HPM_P2
2021/05/15 03:56:54;;;;;;;6.68;4.25;;;7.00;99.90;;;;;;4985029;28;20109;-65
2021/05/15 03:59:19;;;;;;;6.22;4.10;;;7.00;99.90;;;;;;5000864;28;20022;-65
2021/05/15 04:01:48;;;;;;;7.20;4.03;;;7.00;99.90;;;;;;4998735;28;20382;-65
2021/05/15 04:04:14;;;;;;;4.40;3.63;;;7.10;99.90;;;;;;4979308;28;20019;-65
2021/05/15 04:06:39;;;;;;;5.28;4.10;;;7.20;99.90;;;;;;5004682;28;20030;-65
2021/05/15 04:09:06;;;;;;;6.30;4.03;;;7.10;99.90;;;;;;4994106;28;20038;-65
2021/05/15 04:11:36;;;;;;;4.85;3.42;;;7.20;99.90;;;;;;4975344;28;20026;-65
2021/05/15 04:14:09;;;;;;;6.00;4.13;;;7.20;99.90;;;;;;4992641;28;20026;-65
2021/05/15 04:19:15;;;;;;;5.25;3.70;;;7.30;99.90;;;;;;4996645;28;20068;-65
2021/05/15 04:21:41;;;;;;;6.13;3.60;;;7.40;99.90;;;;;;5002459;28;20057;-65
2021/05/15 04:24:07;;;;;;;5.10;4.13;;;7.30;99.90;;;;;;4992183;28;20027;-65
2021/05/15 04:26:33;;;;;;;5.70;4.40;;;7.30;99.90;;;;;;4992372;28;20026;-65
2021/05/15 04:29:00;;;;;;;5.97;3.88;;;7.30;99.90;;;;;;4992051;28;20090;-65
2021/05/15 04:31:27;;;;;;;6.38;4.03;;;7.30;99.90;;;;;;4992427;28;20092;-65
2021/05/15 04:33:53;;;;;;;5.15;3.80;;;7.30;99.90;;;;;;4992007;28;20499;-67
2021/05/15 04:36:18;;;;;;;6.53;4.00;;;7.30;99.90;;;;;;5006075;28;20061;-68
2021/05/15 04:38:44;;;;;;;9.48;2.40;;;7.30;99.90;;;;;;4992101;28;20022;-66
2021/05/15 04:41:10;;;;;;;4.95;3.42;;;8.20;99.90;;;;;;4991829;28;20042;-67
2021/05/15 04:43:35;;;;;;;5.57;4.38;;;9.20;99.90;;;;;;4984275;28;20026;-66
2021/05/15 04:46:01;;;;;;;5.32;3.33;;;8.80;99.90;;;;;;4975053;28;20487;-68
2021/05/15 04:48:27;;;;;;;5.57;3.83;;;8.40;99.90;;;;;;4988111;28;20039;-68
2021/05/15 04:50:52;;;;;;;5.35;3.85;;;8.10;99.90;;;;;;4996657;28;20470;-67
2021/05/15 04:53:18;;;;;;;5.32;3.67;;;7.90;99.90;;;;;;4981540;28;20109;-68
2021/05/15 04:55:44;;;;;;;8.13;3.95;;;7.80;99.90;;;;;;4991248;28;20041;-67
2021/05/15 04:58:09;;;;;;;5.20;3.60;;;7.70;99.90;;;;;;4991523;28;20026;-67
2021/05/15 05:00:35;;;;;;;4.60;3.67;;;7.70;99.90;;;;;;4973832;28;20022;-67
2021/05/15 05:03:01;;;;;;;5.25;3.97;;;7.70;99.90;;;;;;4982534;28;20114;-68
2021/05/15 05:05:26;;;;;;;4.10;3.40;;;7.60;99.90;;;;;;4986935;28;21122;-68
2021/05/15 05:07:52;;;;;;;6.15;3.50;;;7.60;99.90;;;;;;4989308;28;20022;-68
2021/05/15 05:10:18;;;;;;;5.57;3.80;;;7.50;99.90;;;;;;4991223;28;20026;-68
2021/05/15 05:12:43;;;;;;;7.25;3.78;;;7.50;99.90;;;;;;4973915;28;20037;-68
2021/05/15 05:15:09;;;;;;;5.50;3.67;;;7.50;99.90;;;;;;4971786;28;20034;-68
2021/05/15 05:17:35;;;;;;;5.53;4.40;;;7.50;99.90;;;;;;4992161;28;20018;-68
2021/05/15 05:20:01;;;;;;;5.30;3.92;;;7.50;99.90;;;;;;4995230;28;20054;-68
2021/05/15 05:22:27;;;;;;;4.55;3.90;;;7.50;99.90;;;;;;4985135;28;20383;-68
2021/05/15 05:24:52;;;;;;;4.85;3.42;;;7.50;99.90;;;;;;4995046;28;20050;-68
2021/05/15 05:27:20;;;;;;;8.25;3.17;;;7.50;99.90;;;;;;4995140;28;20069;-68
2021/05/15 05:29:46;;;;;;;6.07;3.90;;;7.50;99.90;;;;;;4995342;28;20076;-67
2021/05/15 05:32:12;;;;;;;6.70;3.95;;;7.60;99.90;;;;;;4995292;28;20283;-67
2021/05/15 05:34:38;;;;;;;6.15;3.88;;;7.60;99.90;;;;;;5009137;28;20072;-67
2021/05/15 05:37:04;;;;;;;6.40;4.20;;;7.50;99.90;;;;;;5001683;28;20492;-68
2021/05/15 05:39:31;;;;;;;3.92;3.45;;;7.40;99.90;;;;;;5014849;28;20033;-68
2021/05/15 05:41:58;;;;;;;7.15;3.72;;;7.40;99.90;;;;;;4996060;28;20025;-68
2021/05/15 05:44:24;;;;;;;5.53;4.28;;;7.40;99.90;;;;;;4995253;28;20026;-67
2021/05/15 05:46:49;;;;;;;5.90;3.80;;;7.40;99.90;;;;;;5009018;28;20022;-67
2021/05/15 05:49:15;;;;;;;5.63;3.83;;;7.40;99.90;;;;;;4995080;28;20386;-71
2021/05/15 05:51:41;;;;;;;5.43;3.70;;;7.40;99.90;;;;;;4996742;28;20022;-67
2021/05/15 05:54:07;;;;;;;8.05;4.35;;;7.70;99.90;;;;;;4990839;28;20022;-66
2021/05/15 05:56:33;;;;;;;3.92;3.50;;;7.90;99.90;;;;;;5007746;28;20121;-67
2021/05/15 05:58:59;;;;;;;4.78;3.55;;;7.90;99.90;;;;;;4995063;28;20042;-67
2021/05/15 06:01:25;;;;;;;4.68;3.88;;;8.00;99.90;;;;;;4987434;28;20057;-68
2021/05/15 06:03:50;;;;;;;4.68;3.45;;;8.20;99.90;;;;;;4994139;28;20386;-67
2021/05/15 06:06:16;;;;;;;5.00;4.00;;;8.20;99.90;;;;;;4994247;28;20014;-67
2021/05/15 06:08:42;;;;;;;5.03;4.10;;;8.00;99.90;;;;;;4993988;28;20398;-68
2021/05/15 06:11:08;;;;;;;4.70;3.72;;;8.00;99.90;;;;;;4981494;28;20030;-67
2021/05/15 06:13:34;;;;;;;4.95;4.07;;;8.00;99.90;;;;;;4994328;28;20033;-67
2021/05/15 06:16:00;;;;;;;5.85;3.85;;;7.80;99.90;;;;;;4993985;28;20015;-68
2021/05/15 06:18:26;;;;;;;9.10;4.65;;;7.70;99.90;;;;;;4994566;28;20030;-68
2021/05/15 06:20:52;;;;;;;5.45;4.28;;;7.80;99.90;;;;;;4994750;28;20519;-68
2021/05/15 06:23:18;;;;;;;5.43;3.85;;;7.80;99.90;;;;;;4994629;28;20455;-66
2021/05/15 06:25:44;;;;;;;4.45;3.95;;;7.90;99.90;;;;;;4994640;28;20457;-68
2021/05/15 06:28:11;;;;;;;5.22;4.20;;;8.00;99.90;;;;;;4993716;28;20031;-68
2021/05/15 06:30:38;;;;;;;5.93;4.25;;;8.00;99.90;;;;;;4990769;28;20042;-70
2021/05/15 06:33:03;;;;;;;6.45;4.55;;;7.90;99.90;;;;;;4994174;28;20026;-71
2021/05/15 06:35:29;;;;;;;7.10;4.18;;;7.90;99.90;;;;;;4984272;28;20450;-70
2021/05/15 06:37:55;;;;;;;8.23;5.10;;;7.90;99.90;;;;;;4981554;28;20042;-71
2021/05/15 06:40:21;;;;;;;6.60;4.40;;;7.90;99.90;;;;;;4986806;28;20038;-70
2021/05/15 06:42:47;;;;;;;6.07;4.40;;;7.90;99.90;;;;;;4982072;28;20542;-73
2021/05/15 06:45:13;;;;;;;7.03;4.88;;;7.90;99.90;;;;;;4991866;28;20026;-72
2021/05/15 06:47:39;;;;;;;8.55;4.90;;;8.00;99.90;;;;;;4994041;28;20030;-72
2021/05/15 06:50:06;;;;;;;7.57;5.00;;;8.10;99.90;;;;;;4993670;28;20494;-70
2021/05/15 06:52:32;;;;;;;5.88;3.63;;;8.10;99.90;;;;;;4994068;28;20033;-76
2021/05/15 06:54:58;;;;;;;5.97;3.90;;;9.50;99.90;;;;;;4993383;28;20030;-70
2021/05/15 06:57:24;;;;;;;11.82;3.08;;;9.50;99.90;;;;;;4993965;28;20054;-64
2021/05/15 06:59:50;;;;;;;10.50;3.65;;;9.30;99.90;;;;;;4993804;28;20034;-66
2021/05/15 07:02:16;;;;;;;5.80;3.58;;;9.90;99.90;;;;;;4993675;28;20865;-65
2021/05/15 07:04:42;;;;;;;8.45;3.80;;;10.80;99.90;;;;;;4993213;28;20065;-69
2021/05/15 07:07:08;;;;;;;4.47;3.65;;;10.90;99.90;;;;;;4993205;28;20022;-69
2021/05/15 07:09:34;;;;;;;5.28;3.83;;;10.30;99.90;;;;;;4993457;28;20085;-69
2021/05/15 07:11:59;;;;;;;6.55;4.18;;;9.70;99.90;;;;;;4993526;28;20266;-69
2021/05/15 07:14:25;;;;;;;4.43;3.85;;;9.40;99.90;;;;;;4993576;28;20077;-69
2021/05/15 07:16:51;;;;;;;5.25;3.63;;;9.10;99.90;;;;;;4993262;28;20398;-69
2021/05/15 07:19:17;;;;;;;4.53;3.22;;;8.90;99.90;;;;;;4993012;28;20346;-69
2021/05/15 07:21:43;;;;;;;4.35;3.70;;;8.70;99.90;;;;;;4993526;28;20056;-69
2021/05/15 07:24:09;;;;;;;5.80;3.92;;;8.50;99.90;;;;;;4992759;28;20466;-69
2021/05/15 07:26:35;;;;;;;7.43;4.07;;;8.50;99.90;;;;;;4993095;28;20028;-68
2021/05/15 07:29:01;;;;;;;5.53;4.50;;;8.50;99.90;;;;;;4992689;28;20121;-69
2021/05/15 07:31:27;;;;;;;6.30;4.15;;;8.60;99.90;;;;;;4993037;28;20073;-69
2021/05/15 07:33:53;;;;;;;5.65;3.88;;;8.60;99.90;;;;;;4993129;28;20034;-69
2021/05/15 07:36:18;;;;;;;5.22;3.83;;;8.50;99.90;;;;;;4992952;28;20030;-69
2021/05/15 07:38:48;;;;;;;5.38;3.83;;;8.50;99.90;;;;;;4999207;28;20028;-68
2021/05/15 07:41:15;;;;;;;6.70;3.93;;;8.50;99.90;;;;;;4999538;28;20414;-68
2021/05/15 07:43:41;;;;;;;6.45;4.07;;;8.40;99.90;;;;;;5006755;28;20050;-69
2021/05/15 07:46:07;;;;;;;8.13;4.03;;;8.40;99.90;;;;;;5004012;28;20427;-68
2021/05/15 07:48:39;;;;;;;6.88;4.78;;;8.40;99.90;;;;;;4995624;28;20383;-69
2021/05/15 07:51:09;;;;;;;7.60;4.57;;;8.50;99.90;;;;;;5002650;28;20018;-68
2021/05/15 07:53:36;;;;;;;4.35;3.58;;;8.50;99.90;;;;;;5012421;28;20034;-68
2021/05/15 07:56:02;;;;;;;4.78;3.70;;;8.50;99.90;;;;;;5003478;28;20042;-69
2021/05/15 07:58:28;;;;;;;7.15;4.50;;;8.40;99.90;;;;;;4993371;28;20031;-69
2021/05/15 08:00:54;;;;;;;8.98;4.75;;;8.50;99.90;;;;;;5005602;28;20048;-69
2021/05/15 08:03:20;;;;;;;5.90;4.18;;;8.50;99.90;;;;;;4992569;28;20057;-69
2021/05/15 08:05:45;;;;;;;7.45;4.88;;;8.40;99.90;;;;;;4992815;28;20019;-69
2021/05/15 08:08:11;;;;;;;7.38;4.88;;;8.50;99.90;;;;;;4992384;28;20129;-69
2021/05/15 08:10:37;;;;;;;8.30;4.28;;;8.50;99.90;;;;;;4995135;28;20478;-69
2021/05/15 08:13:03;;;;;;;7.38;4.55;;;8.60;99.90;;;;;;5003232;28;20026;-69
2021/05/15 08:15:28;;;;;;;7.85;4.72;;;8.60;99.90;;;;;;4974850;28;20084;-69
2021/05/15 08:17:55;;;;;;;6.47;4.40;;;8.60;99.90;;;;;;4986046;28;20025;-69
2021/05/15 08:20:22;;;;;;;6.60;4.20;;;8.70;99.90;;;;;;4972737;28;20086;-69
2021/05/15 08:22:47;;;;;;;6.65;4.68;;;8.60;99.90;;;;;;4972899;28;20023;-69
2021/05/15 08:25:14;;;;;;;7.88;4.50;;;8.60;99.90;;;;;;4972672;28;20022;-72
2021/05/15 08:27:41;;;;;;;4.65;3.33;;;8.50;99.90;;;;;;4972795;28;20027;-68
2021/05/15 08:30:10;;;;;;;6.53;4.40;;;9.80;99.90;;;;;;4982203;28;20034;-70
2021/05/15 08:32:36;;;;;;;13.80;5.43;;;10.10;99.90;;;;;;4992124;28;20022;-69
2021/05/15 08:35:02;;;;;;;6.28;4.63;;;9.70;99.90;;;;;;4992303;28;20025;-68
2021/05/15 08:37:27;;;;;;;6.05;4.53;;;9.40;99.90;;;;;;4992204;28;20447;-68
2021/05/15 08:39:54;;;;;;;8.40;4.82;;;9.20;99.90;;;;;;4992123;28;20061;-68
2021/05/15 08:42:21;;;;;;;6.32;4.63;;;9.10;99.90;;;;;;4992391;28;20023;-68
2021/05/15 08:44:48;;;;;;;7.57;4.50;;;9.00;99.90;;;;;;4991939;28;20080;-68
2021/05/15 08:47:16;;;;;;;7.63;4.60;;;9.00;99.90;;;;;;4992114;28;20022;-68
2021/05/15 08:49:45;;;;;;;7.32;4.35;;;8.90;99.90;;;;;;4992304;28;20359;-68
2021/05/15 08:52:11;;;;;;;6.47;4.85;;;9.10;99.90;;;;;;4991709;28;20521;-68
2021/05/15 08:54:37;;;;;;;8.35;4.47;;;9.30;99.90;;;;;;5007082;28;20022;-68
2021/05/15 08:57:03;;;;;;;6.57;4.72;;;9.20;99.90;;;;;;4998254;28;20041;-70
2021/05/15 08:59:29;;;;;;;13.45;5.03;;;8.90;99.90;;;;;;4996226;28;20022;-69
2021/05/15 09:01:56;;;;;;;8.55;5.07;;;8.90;99.90;;;;;;4996138;28;20113;-70
2021/05/15 09:04:23;;;;;;;7.60;5.10;;;8.80;99.90;;;;;;5003131;28;20022;-69
2021/05/15 09:06:48;;;;;;;7.68;4.78;;;8.90;99.90;;;;;;5002301;28;20363;-69
2021/05/15 09:09:14;;;;;;;9.98;4.90;;;8.90;99.90;;;;;;4995577;28;20093;-69
2021/05/15 09:11:40;;;;;;;9.13;4.95;;;9.00;99.90;;;;;;4995612;28;20054;-69
2021/05/15 09:14:15;;;;;;;6.88;4.65;;;9.10;99.90;;;;;;4983470;28;20042;-69
2021/05/15 09:16:52;;;;;;;11.98;4.63;;;9.10;99.90;;;;;;4999486;28;20513;-70
2021/05/15 09:19:20;;;;;;;6.93;5.07;;;9.10;99.90;;;;;;5008087;28;20031;-70
2021/05/15 09:22:15;;;;;;;11.60;5.20;;;9.10;99.90;;;;;;4995656;28;20367;-69
2021/05/15 09:24:45;;;;;;;9.52;5.28;;;9.20;99.90;;;;;;4967267;28;20100;-70
2021/05/15 09:27:12;;;;;;;6.10;4.63;;;9.20;99.90;;;;;;4995391;28;20093;-70
2021/05/15 09:29:44;;;;;;;7.50;4.82;;;9.20;99.90;;;;;;4994852;28;20104;-70
2021/05/15 09:32:12;;;;;;;7.68;4.97;;;9.10;99.90;;;;;;4986896;28;20031;-69
2021/05/15 09:34:48;;;;;;;8.95;4.47;;;9.20;99.90;;;;;;4988341;28;20057;-69
2021/05/15 09:37:31;;;;;;;8.32;4.60;;;9.20;99.90;;;;;;4980062;28;20097;-69
2021/05/15 09:39:57;;;;;;;7.95;5.43;;;9.20;99.90;;;;;;4990272;28;20383;-69
2021/05/15 09:42:23;;;;;;;9.60;4.85;;;9.20;99.90;;;;;;4983583;28;20030;-68
2021/05/15 09:44:49;;;;;;;9.18;4.72;;;9.20;99.90;;;;;;4994870;28;20467;-67
2021/05/15 09:47:19;;;;;;;7.47;4.88;;;9.30;99.90;;;;;;4992329;28;20566;-68
2021/05/15 09:49:45;;;;;;;8.88;4.80;;;9.30;99.90;;;;;;4994453;28;20033;-68
2021/05/15 09:52:11;;;;;;;5.82;4.38;;;9.30;99.90;;;;;;4984384;28;20031;-68
2021/05/15 09:54:40;;;;;;;7.40;4.97;;;9.40;99.90;;;;;;4986260;28;20107;-69
2021/05/15 09:57:08;;;;;;;7.93;5.45;;;9.40;99.90;;;;;;4993858;28;20141;-68
2021/05/15 09:59:37;;;;;;;6.55;4.65;;;9.50;99.90;;;;;;4992200;28;20027;-68
2021/05/15 10:02:06;;;;;;;10.18;4.93;;;9.50;99.90;;;;;;4993440;28;20113;-69
2021/05/15 10:04:32;;;;;;;7.25;4.38;;;9.50;99.90;;;;;;4994274;28;20026;-69
2021/05/15 10:06:58;;;;;;;7.47;4.97;;;9.60;99.90;;;;;;4991574;28;20038;-69
2021/05/15 10:09:34;;;;;;;8.25;4.95;;;9.70;99.90;;;;;;4993178;28;20049;-69
2021/05/15 10:12:02;;;;;;;8.38;5.32;;;9.70;99.90;;;;;;4978835;28;20379;-69
2021/05/15 10:14:28;;;;;;;9.15;5.53;;;9.80;99.90;;;;;;4979008;28;20049;-69
2021/05/15 10:16:54;;;;;;;5.45;4.25;;;9.90;99.90;;;;;;4994053;28;20022;-70
2021/05/15 10:19:20;;;;;;;8.52;5.20;;;9.90;99.90;;;;;;4993807;28;20490;-70
2021/05/15 10:21:47;;;;;;;7.97;4.63;;;10.00;99.90;;;;;;4993970;28;20030;-69
2021/05/15 10:24:43;;;;;;;7.00;4.95;;;9.90;99.90;;;;;;4993799;28;20045;-69
2021/05/15 10:27:14;;;;;;;8.48;5.13;;;9.90;99.90;;;;;;4992992;28;20117;-70
2021/05/15 10:29:41;;;;;;;7.95;5.65;;;10.00;99.90;;;;;;4993665;28;20554;-69
2021/05/15 10:32:23;;;;;;;6.47;4.70;;;10.00;99.90;;;;;;4993880;28;20037;-72
2021/05/15 10:35:04;;;;;;;8.38;5.68;;;10.10;99.90;;;;;;4990466;28;20049;-70
2021/05/15 10:37:34;;;;;;;7.50;4.55;;;10.20;99.90;;;;;;4994219;28;20069;-68
2021/05/15 10:40:16;;;;;;;9.43;4.97;;;10.20;99.90;;;;;;4994068;28;20030;-68
2021/05/15 10:42:41;;;;;;;10.25;4.90;;;10.20;99.90;;;;;;4983817;28;20564;-69
2021/05/15 10:45:08;;;;;;;9.98;4.80;;;10.10;99.90;;;;;;4992169;28;20026;-69
2021/05/15 10:47:41;;;;;;;7.85;4.70;;;10.00;99.90;;;;;;4994850;28;20034;-68
2021/05/15 10:50:21;;;;;;;10.48;5.28;;;10.10;99.90;;;;;;4997168;28;20084;-68
2021/05/15 10:52:50;;;;;;;8.80;5.50;;;10.10;99.90;;;;;;4992954;28;20474;-68
2021/05/15 10:55:31;;;;;;;10.23;5.93;;;10.20;99.90;;;;;;4993130;28;20046;-69
2021/05/15 10:58:07;;;;;;;;;;;10.30;99.90;;;;;;4993821;28;20030;-68
2021/05/15 11:00:32;;;;;;;7.72;5.28;;;10.30;99.90;;;;;;4993167;28;19909;-69
2021/05/15 11:03:01;;;;;;;10.18;5.68;;;10.30;99.90;;;;;;4992627;28;20501;-68
2021/05/15 11:05:30;;;;;;;12.82;5.18;;;10.30;99.90;;;;;;4992833;28;20506;-69
2021/05/15 11:07:56;;;;;;;11.65;5.65;;;10.30;99.90;;;;;;4993245;28;20042;-69
2021/05/15 11:10:22;;;;;;;12.18;5.55;;;10.40;99.90;;;;;;4992879;28;20018;-69
2021/05/15 11:12:53;;;;;;;11.27;5.72;;;10.30;99.90;;;;;;4992636;28;20508;-69
2021/05/15 11:15:23;;;;;;;11.77;5.97;;;10.30;99.90;;;;;;4974363;28;20058;-69
2021/05/15 11:18:03;;;;;;;8.68;5.90;;;10.30;99.90;;;;;;4985467;28;20026;-69
2021/05/15 11:20:41;;;;;;;11.23;5.75;;;10.40;99.90;;;;;;4986572;28;20066;-69
2021/05/15 11:23:27;;;;;;;11.40;6.43;;;10.40;99.90;;;;;;4980860;28;20074;-69
2021/05/15 11:25:54;;;;;;;12.60;6.22;;;10.50;99.90;;;;;;4991299;28;20494;-68
2021/05/15 11:28:26;;;;;;;8.13;5.35;;;10.50;99.90;;;;;;4993854;28;20479;-68
2021/05/15 11:30:52;;;;;;;7.72;5.35;;;10.60;99.90;;;;;;4992375;28;20490;-64
2021/05/15 11:38:32;;;;;;;10.88;6.53;;;11.80;99.90;;;;;;4979059;26;20505;-66
2021/05/15 11:41:03;;;;;;;10.68;5.88;;;12.80;99.90;;;;;;5012178;28;20054;-65
2021/05/15 11:43:34;;;;;;;11.82;6.50;;;12.70;99.90;;;;;;5011627;28;20023;-64
2021/05/15 11:46:02;;;;;;;11.65;6.30;;;12.20;99.90;;;;;;5009983;28;20408;-64
2021/05/15 11:48:30;;;;;;;11.23;6.55;;;11.90;99.90;;;;;;5003977;28;20026;-64
2021/05/15 11:51:13;;;;;;;12.23;6.60;;;11.80;99.90;;;;;;5003920;28;20105;-65
2021/05/15 11:53:40;;;;;;;12.18;6.07;;;11.80;99.90;;;;;;5010466;28;20026;-65
2021/05/15 11:56:20;;;;;;;9.32;5.43;;;11.80;99.90;;;;;;5010484;28;20029;-65
2021/05/15 11:58:47;;;;;;;10.80;5.80;;;11.80;99.90;;;;;;5011948;28;20428;-65
2021/05/15 12:01:21;;;;;;;6.25;4.45;;;11.80;99.90;;;;;;5011990;28;20030;-65
2021/05/15 12:03:46;;;;;;;9.93;5.63;;;11.70;99.90;;;;;;5011480;28;20459;-65
2021/05/15 12:06:14;;;;;;;11.75;6.00;;;11.60;99.90;;;;;;5011771;28;20529;-65
2021/05/15 12:08:40;;;;;;;12.05;6.18;;;11.60;99.90;;;;;;4994070;28;20412;-65
2021/05/15 12:11:07;;;;;;;10.15;5.63;;;11.70;99.90;;;;;;5006353;28;20036;-77
2021/05/15 12:13:33;;;;;;;11.45;6.18;;;11.80;99.90;;;;;;5009370;28;20034;-77
2021/05/15 12:16:03;;;;;;;8.75;5.50;;;11.80;99.90;;;;;;5010520;28;20022;-77
2021/05/15 12:18:30;;;;;;;12.00;6.35;;;11.80;99.90;;;;;;5011294;28;20049;-76
2021/05/15 12:20:56;;;;;;;11.77;5.68;;;11.90;99.90;;;;;;5005116;28;20109;-76
2021/05/15 12:23:24;;;;;;;12.25;5.78;;;12.00;99.90;;;;;;5011064;28;20096;-75
2021/05/15 12:26:01;;;;;;;10.38;6.03;;;12.60;99.90;;;;;;5009739;28;20032;-69
2021/05/15 12:28:29;;;;;;;10.65;5.85;;;12.70;99.90;;;;;;4997903;28;20084;-76
2021/05/15 12:30:56;;;;;;;14.90;5.80;;;13.10;99.90;;;;;;5007046;28;20027;-73
2021/05/15 12:33:25;;;;;;;9.55;6.13;;;13.00;99.90;;;;;;5009537;28;20029;-72
2021/05/15 12:36:05;;;;;;;10.68;6.30;;;12.80;99.90;;;;;;5006380;28;20030;-74
2021/05/15 12:38:33;;;;;;;10.07;6.18;;;12.60;99.90;;;;;;5008511;28;20048;-77
2021/05/15 12:41:11;;;;;;;9.55;5.80;;;12.70;99.90;;;;;;5002291;28;20034;-77
2021/05/15 12:43:39;;;;;;;13.35;6.60;;;12.60;99.90;;;;;;5007468;28;20073;-77
2021/05/15 12:46:13;;;;;;;9.10;5.60;;;12.50;99.90;;;;;;5006034;28;20076;-79
2021/05/15 12:48:41;;;;;;;14.60;6.47;;;12.50;99.90;;;;;;5003786;28;20721;-73
2021/05/15 12:51:07;;;;;;;13.07;6.10;;;13.20;99.90;;;;;;4991142;28;20069;-79
2021/05/15 12:53:33;;;;;;;13.43;6.28;;;13.60;99.90;;;;;;5009631;28;20061;-79
2021/05/15 12:55:59;;;;;;;11.77;7.13;;;13.40;99.90;;;;;;4999695;28;20546;-79
2021/05/15 12:58:27;;;;;;;11.38;6.68;;;13.20;99.90;;;;;;4990873;28;20014;-79
2021/05/15 13:01:14;;;;;;;13.40;6.28;;;13.10;99.90;;;;;;4990956;28;20022;-79
2021/05/15 13:03:51;;;;;;;11.95;5.65;;;12.90;99.90;;;;;;4990831;28;20041;-79
2021/05/15 13:06:19;;;;;;;15.40;6.40;;;12.70;99.90;;;;;;4991178;28;20386;-79
2021/05/15 13:08:59;;;;;;;9.98;5.68;;;12.50;99.90;;;;;;4990615;28;20015;-79
2021/05/15 13:11:26;;;;;;;10.50;6.35;;;12.50;99.90;;;;;;5002302;28;20030;-78
2021/05/15 13:13:53;;;;;;;9.35;5.03;;;12.50;99.90;;;;;;5010710;28;20140;-79
2021/05/15 13:16:20;;;;;;;10.02;5.70;;;12.50;99.90;;;;;;5010512;28;20493;-78
2021/05/15 13:18:57;;;;;;;10.45;5.25;;;12.50;99.90;;;;;;4993311;28;20034;-78
2021/05/15 13:21:23;;;;;;;10.65;4.72;;;12.50;99.90;;;;;;4983557;28;20018;-79
2021/05/15 13:23:49;;;;;;;10.90;5.30;;;12.50;99.90;;;;;;4993856;28;20105;-78
2021/05/15 13:26:14;;;;;;;8.55;4.53;;;12.50;99.90;;;;;;4990930;28;20082;-78
2021/05/15 13:28:40;;;;;;;6.13;4.57;;;12.50;99.90;;;;;;5004263;28;20463;-78
2021/05/15 13:31:07;;;;;;;9.27;5.43;;;12.60;99.90;;;;;;4990919;28;20030;-78
2021/05/15 13:33:32;;;;;;;11.80;5.57;;;12.60;99.90;;;;;;5003103;28;20026;-78
2021/05/15 13:35:58;;;;;;;11.20;5.45;;;12.60;99.90;;;;;;4996709;28;20033;-79
2021/05/15 13:38:24;;;;;;;8.90;4.63;;;12.60;99.90;;;;;;5012433;28;20151;-78
2021/05/15 13:40:50;;;;;;;7.57;4.43;;;12.60;99.90;;;;;;4997539;28;20026;-78
2021/05/15 13:43:16;;;;;;;8.45;4.95;;;12.70;99.90;;;;;;4994286;28;20382;-79
2021/05/15 13:45:43;;;;;;;7.88;4.43;;;12.70;99.90;;;;;;4994007;28;20026;-78
2021/05/15 13:48:09;;;;;;;8.00;5.20;;;12.70;99.90;;;;;;4976538;28;20031;-79
2021/05/15 13:50:35;;;;;;;8.02;5.00;;;12.70;99.90;;;;;;4994101;28;20027;-79
2021/05/15 13:53:01;;;;;;;9.05;4.45;;;12.70;99.90;;;;;;4990102;28;20370;-79
2021/05/15 13:55:26;;;;;;;7.30;4.45;;;12.70;99.90;;;;;;4994544;28;20150;-79
2021/05/15 13:57:52;;;;;;;9.35;4.50;;;12.80;99.90;;;;;;4993947;28;20485;-79
2021/05/15 14:00:19;;;;;;;13.10;4.70;;;12.80;99.90;;;;;;4994111;28;20022;-78
2021/05/15 14:02:45;;;;;;;7.72;5.00;;;12.90;99.90;;;;;;4994062;28;20272;-79
2021/05/15 14:05:12;;;;;;;8.90;4.65;;;12.90;99.90;;;;;;5011188;28;20034;-80
2021/05/15 14:07:39;;;;;;;7.40;4.57;;;13.00;99.90;;;;;;5004330;28;20029;-78
2021/05/15 14:10:08;;;;;;;8.35;4.68;;;13.10;99.90;;;;;;4995412;28;20030;-79
2021/05/15 14:12:34;;;;;;;9.02;4.68;;;13.10;99.90;;;;;;5013251;28;20036;-79
2021/05/15 14:15:00;;;;;;;9.95;4.93;;;13.10;99.90;;;;;;5013571;28;20440;-79
2021/05/15 14:17:27;;;;;;;8.18;4.47;;;13.10;99.90;;;;;;4999916;28;20109;-79
2021/05/15 14:19:52;;;;;;;8.65;4.38;;;13.20;99.90;;;;;;5001422;28;20023;-78
2021/05/15 14:22:18;;;;;;;6.68;3.83;;;13.10;99.90;;;;;;5007426;28;20035;-78
2021/05/15 14:24:44;;;;;;;7.35;4.68;;;13.00;99.90;;;;;;5003723;28;20026;-78
2021/05/15 14:27:10;;;;;;;11.30;5.10;;;12.90;99.90;;;;;;5010288;28;20068;-78
2021/05/15 14:29:36;;;;;;;6.97;4.32;;;12.90;99.90;;;;;;4993570;28;20038;-79
2021/05/15 14:32:03;;;;;;;7.57;4.25;;;12.80;99.90;;;;;;4993685;28;20050;-78
2021/05/15 14:34:28;;;;;;;9.73;4.43;;;12.80;99.90;;;;;;4993686;28;20034;-78
2021/05/15 14:36:54;;;;;;;12.40;4.93;;;12.80;99.90;;;;;;5005428;28;20396;-78
2021/05/15 14:39:20;;;;;;;8.35;3.78;;;12.60;99.90;;;;;;4994712;28;20486;-78
2021/05/15 14:41:49;;;;;;;5.15;3.47;;;12.60;99.90;;;;;;5003611;28;20026;-71
2021/05/15 14:44:15;;;;;;;5.03;3.30;;;13.10;99.90;;;;;;4998769;28;20478;-76
2021/05/15 14:46:42;;;;;;;6.13;4.13;;;13.90;99.90;;;;;;5012835;28;20028;-78
2021/05/15 14:49:08;;;;;;;9.43;4.32;;;14.00;99.90;;;;;;5001975;28;20386;-79
2021/05/15 14:51:34;;;;;;;6.20;4.03;;;13.50;99.90;;;;;;5010364;28;20377;-74
2021/05/15 14:54:00;;;;;;;10.02;4.55;;;13.20;99.90;;;;;;5004113;28;20030;-79
2021/05/15 14:56:26;;;;;;;9.57;4.22;;;13.00;99.90;;;;;;4993158;28;20022;-78
2021/05/15 14:58:51;;;;;;;8.10;4.20;;;13.00;99.90;;;;;;4993085;28;20074;-78
2021/05/15 15:01:17;;;;;;;10.45;4.18;;;13.00;99.90;;;;;;4975629;28;20076;-76
2021/05/15 15:03:44;;;;;;;12.80;4.57;;;13.00;99.90;;;;;;4998266;28;20493;-76
2021/05/15 15:06:11;;;;;;;7.65;3.72;;;12.90;99.90;;;;;;5001634;28;20034;-76
2021/05/15 15:08:38;;;;;;;7.13;4.07;;;12.90;99.90;;;;;;4991871;28;20382;-76
2021/05/15 15:11:04;;;;;;;6.80;3.67;;;12.90;99.90;;;;;;5002564;28;20084;-76
2021/05/15 15:13:31;;;;;;;9.60;4.30;;;12.90;99.90;;;;;;4998302;28;20054;-76
2021/05/15 15:15:58;;;;;;;7.13;4.65;;;12.80;99.90;;;;;;5010596;28;20349;-75
2021/05/15 15:18:24;;;;;;;9.77;4.47;;;12.80;99.90;;;;;;5012398;28;20033;-76
2021/05/15 15:20:50;;;;;;;7.30;4.18;;;12.80;99.90;;;;;;5000923;28;20381;-76
2021/05/15 15:23:18;;;;;;;7.10;4.40;;;12.80;99.90;;;;;;5010163;28;20040;-76
2021/05/15 15:25:45;;;;;;;11.05;4.68;;;12.80;99.90;;;;;;5009193;28;20026;-76
2021/05/15 15:28:11;;;;;;;8.73;4.57;;;12.80;99.90;;;;;;5012179;28;20121;-76
2021/05/15 15:30:37;;;;;;;8.52;4.53;;;12.80;99.90;;;;;;5007524;28;20461;-76
2021/05/15 15:33:04;;;;;;;11.18;4.65;;;12.80;99.90;;;;;;5012078;28;20452;-77
2021/05/15 15:35:31;;;;;;;9.07;4.53;;;12.90;99.90;;;;;;5010067;28;20026;-77
2021/05/15 15:37:57;;;;;;;7.72;4.18;;;12.90;99.90;;;;;;4994354;28;20046;-77
2021/05/15 15:40:23;;;;;;;8.82;4.53;;;12.90;99.90;;;;;;5010690;28;20029;-77
2021/05/15 15:42:49;;;;;;;7.50;4.70;;;12.90;99.90;;;;;;4993118;28;20187;-76
2021/05/15 15:45:15;;;;;;;7.35;4.60;;;12.80;99.90;;;;;;5000497;28;20537;-77
2021/05/15 15:47:42;;;;;;;8.38;4.32;;;12.80;99.90;;;;;;4999100;28;20540;-77
2021/05/15 15:50:10;;;;;;;7.47;4.38;;;12.80;99.90;;;;;;4992267;28;20022;-78
2021/05/15 15:52:36;;;;;;;12.35;4.85;;;12.80;99.90;;;;;;4993101;28;20018;-77
2021/05/15 15:55:07;;;;;;;7.63;4.72;;;12.70;99.90;;;;;;4996241;28;20469;-76
2021/05/15 15:57:33;;;;;;;9.07;5.45;;;12.70;99.90;;;;;;5007330;28;20018;-76
2021/05/15 15:59:59;;;;;;;7.70;4.38;;;12.70;99.90;;;;;;4994547;28;20026;-77
2021/05/15 16:02:24;;;;;;;9.43;5.35;;;12.70;99.90;;;;;;4994644;28;20072;-76
2021/05/15 16:04:50;;;;;;;11.32;4.63;;;12.70;99.90;;;;;;4992208;28;20018;-78
2021/05/15 16:07:16;;;;;;;10.30;5.75;;;12.80;99.90;;;;;;5005922;28;20057;-81
2021/05/15 16:09:42;;;;;;;9.82;5.15;;;12.80;99.90;;;;;;5007366;28;20096;-76
2021/05/15 16:12:09;;;;;;;9.40;5.57;;;12.90;99.90;;;;;;5003138;28;20120;-80
2021/05/15 16:14:35;;;;;;;12.45;7.03;;;12.90;99.90;;;;;;5010959;28;20033;-84
2021/05/15 16:17:03;;;;;;;13.95;7.05;;;12.80;99.90;;;;;;5011032;28;20114;-83
2021/05/15 16:19:29;;;;;;;11.23;6.07;;;12.80;99.90;;;;;;5011621;28;20026;-82
2021/05/15 16:21:55;;;;;;;15.48;6.70;;;12.80;99.90;;;;;;5012028;28;20017;-87
2021/05/15 16:24:21;;;;;;;10.75;6.40;;;12.80;99.90;;;;;;5012361;28;20033;-84
2021/05/15 16:26:47;;;;;;;12.55;6.85;;;12.80;99.90;;;;;;5011031;28;20022;-83
2021/05/15 16:29:13;;;;;;;10.02;6.50;;;12.80;99.90;;;;;;5011655;28;20520;-87
2021/05/15 16:31:39;;;;;;;10.13;6.38;;;12.80;99.90;;;;;;5011546;28;20029;-88
2021/05/15 16:34:06;;;;;;;12.73;7.10;;;12.80;99.90;;;;;;5011854;28;20032;-84
2021/05/15 16:36:32;;;;;;;12.02;6.90;;;12.80;99.90;;;;;;5010356;28;20052;-83
2021/05/15 16:38:58;;;;;;;13.00;7.07;;;12.80;99.90;;;;;;5011465;28;20125;-82
2021/05/15 16:41:24;;;;;;;9.45;6.18;;;12.90;99.90;;;;;;5012200;28;20104;-86
2021/05/15 16:43:52;;;;;;;10.95;6.60;;;12.90;99.90;;;;;;5011600;28;20382;-85
2021/05/15 16:46:19;;;;;;;12.30;6.75;;;12.80;99.90;;;;;;5011676;28;20105;-84
2021/05/15 16:48:44;;;;;;;12.13;7.28;;;12.80;99.90;;;;;;5010839;28;20092;-82
2021/05/15 16:51:19;;;;;;;12.80;7.07;;;12.70;99.90;;;;;;5002859;28;20017;-88
2021/05/15 16:53:46;;;;;;;11.55;6.70;;;12.70;99.90;;;;;;5012233;28;20034;-89
2021/05/15 16:56:13;;;;;;;13.90;7.43;;;12.70;99.90;;;;;;5012541;28;20103;-87